Time;durP1;ratioP1;P1;durP2;ratioP2;P2;SDS_P1;SDS_P2;PMS_P1;PMS_P2;Temp;Humidity;BMP_temperature;BMP_pressure;BME280_temperature;BME280_humidity;BME280_pressure;Samples;Min_cycle;Max_cycle;Signal;HPM_P1;HPM_P2
2023/01/29 00:00:45;;;;;;;9.20;6.63;;;2.60;99.90;;;;;;5088700;28;20254;-66
2023/01/29 00:03:34;;;;;;;12.87;7.00;;;2.50;99.90;;;;;;5091205;27;20362;-66
2023/01/29 00:06:23;;;;;;;11.47;7.17;;;2.70;99.90;;;;;;5094345;27;20222;-66
2023/01/29 00:09:12;;;;;;;10.77;7.70;;;2.60;99.90;;;;;;5095244;27;20222;-67
2023/01/29 00:12:01;;;;;;;11.70;8.13;;;2.50;99.90;;;;;;5101691;28;20227;-65
2023/01/29 00:14:51;;;;;;;12.87;8.17;;;2.60;99.90;;;;;;5122260;27;20788;-69
2023/01/29 00:17:40;;;;;;;11.93;8.20;;;2.50;99.90;;;;;;5090003;28;20871;-68
2023/01/29 00:20:29;;;;;;;13.57;8.03;;;2.40;99.90;;;;;;5099838;27;20227;-70
2023/01/29 00:23:22;;;;;;;12.67;8.27;;;2.30;99.90;;;;;;5097508;27;20233;-69
2023/01/29 00:26:11;;;;;;;12.20;8.13;;;2.40;99.90;;;;;;5092297;27;20358;-69
2023/01/29 00:29:04;;;;;;;11.53;7.70;;;2.30;99.90;;;;;;5091889;28;20378;-69
2023/01/29 00:31:55;;;;;;;12.60;8.03;;;2.40;99.90;;;;;;5093853;27;20218;-68
2023/01/29 00:34:44;;;;;;;11.93;7.80;;;2.40;99.90;;;;;;5086950;27;20657;-69
2023/01/29 00:37:32;;;;;;;10.83;7.50;;;2.40;99.90;;;;;;5097463;27;20236;-68
2023/01/29 00:40:22;;;;;;;11.27;7.20;;;2.60;99.90;;;;;;5092784;27;20229;-68
2023/01/29 00:46:17;;;;;;;9.83;6.23;;;2.40;99.90;;;;;;5082597;28;20222;-68
2023/01/29 00:49:08;;;;;;;9.97;6.67;;;2.40;99.90;;;;;;5097600;27;20218;-69
2023/01/29 00:55:05;;;;;;;11.53;6.13;;;2.40;99.90;;;;;;5096135;27;20759;-70
2023/01/29 00:57:54;;;;;;;9.13;6.17;;;2.40;99.90;;;;;;5089737;28;20287;-69
2023/01/29 01:00:42;;;;;;;9.50;6.17;;;2.40;99.90;;;;;;5091729;27;20230;-69
2023/01/29 01:03:33;;;;;;;9.50;5.50;;;2.30;99.90;;;;;;5096316;27;20328;-68
2023/01/29 01:06:24;;;;;;;8.93;5.53;;;2.40;99.90;;;;;;5097693;27;20233;-70
2023/01/29 01:12:19;;;;;;;7.63;5.33;;;2.30;99.90;;;;;;5096555;27;20218;-69
2023/01/29 01:15:09;;;;;;;7.27;5.00;;;2.30;99.90;;;;;;5093525;27;20226;-70
2023/01/29 01:18:00;;;;;;;7.73;5.17;;;2.30;99.90;;;;;;5098323;28;20323;-67
2023/01/29 01:20:50;;;;;;;6.83;5.20;;;2.30;99.90;;;;;;5093559;27;20239;-69
2023/01/29 01:23:40;;;;;;;7.87;5.30;;;2.30;99.90;;;;;;5094959;27;20605;-70
2023/01/29 01:26:29;;;;;;;8.07;5.57;;;2.20;99.90;;;;;;5094279;28;20233;-68
2023/01/29 01:29:18;;;;;;;6.10;5.00;;;2.30;99.90;;;;;;5092583;27;20743;-67
2023/01/29 01:32:07;;;;;;;6.90;4.97;;;2.20;99.90;;;;;;5094145;27;20225;-68
2023/01/29 01:34:56;;;;;;;7.70;5.00;;;2.30;99.90;;;;;;5091880;27;20693;-67
2023/01/29 01:37:45;;;;;;;9.27;5.70;;;2.20;99.90;;;;;;5091405;27;20221;-67
2023/01/29 01:40:35;;;;;;;7.80;5.23;;;2.30;99.90;;;;;;5096843;28;20222;-69
2023/01/29 01:43:24;;;;;;;8.50;5.33;;;2.20;99.90;;;;;;5119074;27;20224;-68
2023/01/29 01:46:13;;;;;;;8.53;5.13;;;2.30;99.90;;;;;;5094890;27;20287;-69
2023/01/29 01:49:05;;;;;;;9.97;5.97;;;2.30;99.90;;;;;;5098978;28;20229;-71
2023/01/29 01:51:53;;;;;;;9.17;5.70;;;2.10;99.90;;;;;;5116010;27;20235;-69
2023/01/29 01:54:43;;;;;;;7.93;5.40;;;2.20;99.90;;;;;;5089702;28;20222;-68
2023/01/29 01:57:37;;;;;;;9.50;5.77;;;2.30;99.90;;;;;;5089677;27;20256;-69
2023/01/29 02:00:40;;;;;;;7.60;5.70;;;2.30;99.90;;;;;;5103772;27;20705;-65
2023/01/29 02:09:52;;;;;;;9.03;5.87;;;2.30;99.90;;;;;;5114874;27;20562;-68
2023/01/29 02:12:45;;;;;;;11.73;6.10;;;2.30;99.90;;;;;;5093998;27;21370;-69
2023/01/29 02:15:40;;;;;;;9.47;6.27;;;2.40;99.90;;;;;;5094885;27;20307;-68
2023/01/29 02:18:36;;;;;;;10.27;6.43;;;2.10;99.90;;;;;;5094273;27;20327;-69
2023/01/29 02:22:03;;;;;;;11.77;7.03;;;2.10;99.90;;;;;;5089912;27;20420;-68
2023/01/29 02:25:16;;;;;;;10.00;6.97;;;2.00;99.90;;;;;;5086551;28;20285;-67
2023/01/29 02:28:23;;;;;;;9.67;6.80;;;2.00;99.90;;;;;;5084470;27;20262;-67
2023/01/29 02:31:21;;;;;;;9.90;6.80;;;2.00;99.90;;;;;;5086547;28;20225;-69
2023/01/29 02:34:19;;;;;;;14.60;7.17;;;2.20;99.90;;;;;;5087420;27;21014;-68
2023/01/29 02:37:11;;;;;;;11.77;7.10;;;2.00;99.90;;;;;;5090938;28;20216;-67
2023/01/29 02:40:09;;;;;;;12.67;7.53;;;2.10;99.90;;;;;;5099908;28;20749;-68
2023/01/29 02:43:06;;;;;;;9.70;7.10;;;2.10;99.90;;;;;;5100949;27;20937;-71
2023/01/29 02:46:08;;;;;;;10.97;7.03;;;2.10;99.90;;;;;;5092108;27;21161;-71
2023/01/29 02:49:02;;;;;;;11.93;7.67;;;2.10;99.90;;;;;;5091541;27;20314;-70
2023/01/29 02:51:59;;;;;;;10.67;7.10;;;2.10;99.90;;;;;;5090837;28;20277;-69
2023/01/29 02:54:54;;;;;;;10.10;6.33;;;2.30;99.90;;;;;;5094063;27;20216;-70
2023/01/29 02:57:46;;;;;;;9.70;7.07;;;2.20;99.90;;;;;;5093114;27;20228;-70
2023/01/29 03:00:39;;;;;;;10.27;7.10;;;2.20;99.90;;;;;;5092392;27;20293;-71
2023/01/29 03:03:38;;;;;;;11.03;7.33;;;2.30;99.90;;;;;;5093767;27;20244;-70
2023/01/29 03:06:32;;;;;;;9.63;7.20;;;2.20;99.90;;;;;;5090436;27;20640;-67
2023/01/29 03:09:26;;;;;;;11.07;7.93;;;2.20;99.90;;;;;;5105111;27;20225;-67
2023/01/29 03:12:32;;;;;;;13.53;8.33;;;2.30;99.90;;;;;;5084593;27;20679;-67
2023/01/29 03:15:28;;;;;;;13.20;8.37;;;2.40;99.90;;;;;;5087526;27;20214;-68
2023/01/29 03:18:47;;;;;;;12.83;8.00;;;2.30;99.90;;;;;;5091326;27;20223;-67
2023/01/29 03:21:58;;;;;;;12.23;8.10;;;2.10;99.90;;;;;;5091821;27;20222;-71
2023/01/29 03:34:33;;;;;;;13.03;8.50;;;2.30;99.90;;;;;;5096773;28;20234;-69
2023/01/29 03:37:30;;;;;;;14.80;8.60;;;2.20;99.90;;;;;;5090585;27;20225;-68
2023/01/29 03:40:23;;;;;;;12.20;8.17;;;2.20;99.90;;;;;;5124926;27;20588;-69
2023/01/29 03:43:21;;;;;;;15.00;8.07;;;2.10;99.90;;;;;;5092423;27;20307;-68
2023/01/29 03:46:17;;;;;;;13.70;8.63;;;2.30;99.90;;;;;;5091097;28;20225;-68
2023/01/29 03:49:17;;;;;;;12.77;8.40;;;2.10;99.90;;;;;;5086751;28;20230;-68
2023/01/29 03:52:16;;;;;;;12.40;8.50;;;2.30;99.90;;;;;;5094858;27;20707;-68
2023/01/29 03:55:12;;;;;;;11.50;8.33;;;2.30;99.90;;;;;;5106697;27;20214;-68
2023/01/29 03:58:09;;;;;;;13.00;8.83;;;2.10;99.90;;;;;;5091537;28;20410;-70
2023/01/29 04:01:02;;;;;;;15.10;8.10;;;2.20;99.90;;;;;;5090137;28;20223;-68
2023/01/29 04:03:57;;;;;;;12.33;7.77;;;2.10;99.90;;;;;;5093364;28;20991;-68
2023/01/29 04:06:49;;;;;;;14.97;8.37;;;2.10;99.90;;;;;;5093855;28;20990;-68
2023/01/29 04:09:46;;;;;;;10.97;7.53;;;2.30;99.90;;;;;;5088859;27;20219;-69
2023/01/29 04:12:41;;;;;;;12.10;7.37;;;2.20;99.90;;;;;;5096511;27;20353;-68
2023/01/29 04:15:34;;;;;;;13.90;8.43;;;2.20;99.90;;;;;;5089394;28;20312;-70
2023/01/29 04:18:24;;;;;;;12.27;8.00;;;2.20;99.90;;;;;;5102402;27;20348;-69
2023/01/29 04:21:30;;;;;;;12.93;8.07;;;2.20;99.90;;;;;;5087164;28;20226;-68
2023/01/29 04:24:20;;;;;;;12.13;7.97;;;2.20;99.90;;;;;;5091605;27;20226;-69
2023/01/29 04:27:26;;;;;;;12.93;7.27;;;2.10;99.90;;;;;;5115756;27;20987;-69
2023/01/29 04:30:33;;;;;;;11.13;7.43;;;2.20;99.90;;;;;;5094533;28;20213;-69
2023/01/29 04:33:34;;;;;;;11.73;7.70;;;2.20;99.90;;;;;;5094724;28;20708;-70
2023/01/29 04:36:34;;;;;;;11.90;7.67;;;2.10;99.90;;;;;;5090584;27;20598;-70
2023/01/29 04:39:27;;;;;;;11.70;7.50;;;2.10;99.90;;;;;;5087442;28;20219;-70
2023/01/29 04:42:29;;;;;;;11.87;7.40;;;2.10;99.90;;;;;;5085556;27;20646;-70
2023/01/29 04:45:27;;;;;;;13.13;7.50;;;2.10;99.90;;;;;;5118848;27;20228;-69
2023/01/29 04:48:22;;;;;;;12.70;7.27;;;2.20;99.90;;;;;;5090368;28;20326;-68
2023/01/29 04:51:19;;;;;;;11.27;7.50;;;2.30;99.90;;;;;;5091440;27;20376;-69
2023/01/29 04:54:15;;;;;;;11.37;7.97;;;2.10;99.90;;;;;;5094642;27;20607;-68
2023/01/29 04:57:11;;;;;;;11.77;8.17;;;2.10;99.90;;;;;;5098591;28;20236;-68
2023/01/29 05:00:07;;;;;;;12.50;7.93;;;2.20;99.90;;;;;;5089667;27;20260;-68
2023/01/29 05:02:57;;;;;;;12.63;8.33;;;2.20;99.90;;;;;;5088698;27;20229;-70
2023/01/29 05:05:48;;;;;;;12.37;8.33;;;2.20;99.90;;;;;;5091586;27;20248;-68
2023/01/29 05:08:39;;;;;;;14.77;8.33;;;2.10;99.90;;;;;;5093229;28;20225;-68
2023/01/29 05:11:30;;;;;;;12.77;8.43;;;2.00;99.90;;;;;;5110690;27;20249;-69
2023/01/29 05:14:20;;;;;;;13.40;8.03;;;2.10;99.90;;;;;;5098445;27;20222;-68
2023/01/29 05:17:15;;;;;;;13.27;7.83;;;2.10;99.90;;;;;;5094872;27;20244;-69
2023/01/29 05:20:04;;;;;;;14.10;8.07;;;2.20;99.90;;;;;;5099733;27;21067;-70
2023/01/29 05:22:53;;;;;;;14.37;8.87;;;2.10;99.90;;;;;;5092223;27;20232;-68
2023/01/29 05:25:45;;;;;;;12.03;8.03;;;2.20;99.90;;;;;;5095733;27;20244;-71
2023/01/29 05:28:33;;;;;;;14.70;8.33;;;2.30;99.90;;;;;;5097945;27;20316;-68
2023/01/29 05:31:22;;;;;;;12.60;7.93;;;2.20;99.90;;;;;;5089969;27;20685;-68
2023/01/29 05:34:16;;;;;;;12.67;8.63;;;2.40;99.90;;;;;;5091868;28;20580;-70
2023/01/29 05:37:05;;;;;;;14.50;8.70;;;2.40;99.90;;;;;;5104123;27;20228;-68
2023/01/29 05:39:53;;;;;;;12.97;8.63;;;2.30;99.90;;;;;;5091359;27;20478;-71
2023/01/29 05:42:43;;;;;;;13.17;7.90;;;2.20;99.90;;;;;;5093790;28;20645;-71
2023/01/29 05:45:31;;;;;;;12.87;7.80;;;2.20;99.90;;;;;;5103133;27;20220;-72
2023/01/29 05:48:20;;;;;;;15.60;8.50;;;2.20;99.90;;;;;;5086838;27;20234;-69
2023/01/29 05:51:11;;;;;;;14.37;8.30;;;2.20;99.90;;;;;;5094986;27;20248;-69
2023/01/29 05:54:00;;;;;;;13.93;8.73;;;2.20;99.90;;;;;;5125258;27;20240;-70
2023/01/29 05:56:52;;;;;;;13.30;8.50;;;2.30;99.90;;;;;;5124617;27;20217;-68
2023/01/29 05:59:40;;;;;;;16.20;8.83;;;2.30;99.90;;;;;;5090272;27;20286;-69
2023/01/29 06:02:31;;;;;;;13.23;8.50;;;2.20;99.90;;;;;;5091032;27;20222;-70
2023/01/29 06:05:20;;;;;;;13.40;8.87;;;2.20;99.90;;;;;;5098258;27;20230;-67
2023/01/29 06:08:10;;;;;;;15.17;9.33;;;2.10;99.90;;;;;;5086576;28;20859;-68
2023/01/29 06:10:59;;;;;;;16.70;8.97;;;2.10;99.90;;;;;;5091473;27;20744;-67
2023/01/29 06:13:48;;;;;;;15.57;9.40;;;2.30;99.90;;;;;;5088628;27;20232;-68
2023/01/29 06:16:37;;;;;;;15.67;9.80;;;2.20;99.90;;;;;;5095802;27;20249;-69
2023/01/29 06:19:25;;;;;;;15.77;8.90;;;2.20;99.90;;;;;;5098724;27;20222;-67
2023/01/29 06:22:14;;;;;;;14.03;9.50;;;2.40;99.90;;;;;;5095646;27;20238;-68
2023/01/29 06:25:05;;;;;;;13.87;8.87;;;2.40;99.90;;;;;;5089102;27;20240;-67
2023/01/29 06:27:54;;;;;;;12.07;8.60;;;2.30;99.90;;;;;;5102267;27;20723;-68
2023/01/29 06:30:47;;;;;;;14.90;8.77;;;2.30;99.90;;;;;;5088047;27;20702;-67
2023/01/29 06:33:36;;;;;;;14.73;8.83;;;2.20;99.90;;;;;;5096613;27;20229;-68
2023/01/29 06:36:25;;;;;;;15.73;9.90;;;2.30;99.90;;;;;;5098920;27;20235;-66
2023/01/29 06:39:13;;;;;;;17.03;9.50;;;2.30;99.90;;;;;;5091768;28;20232;-67
2023/01/29 06:42:04;;;;;;;16.20;9.80;;;2.20;99.90;;;;;;5099401;28;20225;-68
2023/01/29 06:44:53;;;;;;;19.13;9.67;;;2.30;99.90;;;;;;5096838;27;20231;-68
2023/01/29 06:47:41;;;;;;;16.87;9.90;;;2.40;99.90;;;;;;5096289;28;20226;-69
2023/01/29 06:50:31;;;;;;;14.77;9.97;;;2.40;99.90;;;;;;5104069;27;20233;-69
2023/01/29 06:53:20;;;;;;;15.73;10.23;;;2.40;99.90;;;;;;5102383;27;20305;-69
2023/01/29 06:56:09;;;;;;;18.37;11.03;;;2.40;99.90;;;;;;5095604;27;20229;-68
2023/01/29 06:59:00;;;;;;;20.23;10.77;;;2.40;99.90;;;;;;5092817;27;20214;-69
2023/01/29 07:01:48;;;;;;;18.27;10.60;;;2.30;99.90;;;;;;5086584;28;20232;-68
2023/01/29 07:04:38;;;;;;;20.60;10.90;;;2.40;99.90;;;;;;5093024;27;20231;-67
2023/01/29 07:07:26;;;;;;;17.23;9.97;;;2.30;99.90;;;;;;5096171;27;20230;-70
2023/01/29 07:10:17;;;;;;;16.23;9.90;;;2.40;99.90;;;;;;5101331;27;20277;-73
2023/01/29 07:13:06;;;;;;;16.13;10.23;;;2.40;99.90;;;;;;5099029;27;20237;-69
2023/01/29 07:15:58;;;;;;;17.57;9.87;;;2.40;99.90;;;;;;5087515;28;20223;-69
2023/01/29 07:18:47;;;;;;;18.80;10.20;;;2.40;99.90;;;;;;5119092;27;20228;-68
2023/01/29 07:21:40;;;;;;;23.83;9.60;;;2.60;99.90;;;;;;5100217;27;20243;-69
2023/01/29 07:24:29;;;;;;;14.53;9.00;;;2.50;99.90;;;;;;5092650;27;20241;-68
2023/01/29 07:27:18;;;;;;;12.70;8.13;;;2.40;99.90;;;;;;5087349;28;20225;-68
2023/01/29 07:30:09;;;;;;;17.83;9.50;;;2.50;99.90;;;;;;5115534;27;20235;-70
2023/01/29 07:33:03;;;;;;;14.07;9.57;;;2.40;99.90;;;;;;5101036;27;20897;-71
2023/01/29 07:35:54;;;;;;;15.43;8.90;;;2.40;99.90;;;;;;5087686;28;20226;-71
2023/01/29 07:38:43;;;;;;;19.70;9.27;;;2.60;99.90;;;;;;5096205;27;20614;-69
2023/01/29 07:41:32;;;;;;;12.93;8.50;;;2.50;99.90;;;;;;5086726;28;20229;-72
2023/01/29 07:44:21;;;;;;;13.60;8.60;;;2.60;99.90;;;;;;5090651;27;20829;-70
2023/01/29 07:47:10;;;;;;;19.27;11.30;;;2.40;99.90;;;;;;5096400;27;20220;-70
2023/01/29 07:50:00;;;;;;;15.07;9.33;;;2.40;99.90;;;;;;5092677;27;20241;-69
2023/01/29 07:52:49;;;;;;;15.07;8.73;;;2.40;99.90;;;;;;5116631;27;20703;-70
2023/01/29 07:55:38;;;;;;;16.10;9.07;;;2.60;99.90;;;;;;5089709;27;20925;-69
2023/01/29 07:58:27;;;;;;;15.30;8.87;;;2.60;99.90;;;;;;5085580;27;20229;-71
2023/01/29 08:01:18;;;;;;;17.20;9.27;;;2.60;99.90;;;;;;5123481;27;20734;-69
2023/01/29 08:04:07;;;;;;;15.43;9.27;;;2.70;99.90;;;;;;5092801;27;20234;-70
2023/01/29 08:06:58;;;;;;;14.97;9.20;;;2.80;99.90;;;;;;5097176;28;20234;-71
2023/01/29 08:09:47;;;;;;;15.27;9.30;;;2.70;99.90;;;;;;5094687;28;20296;-70
2023/01/29 08:12:35;;;;;;;13.87;8.50;;;2.70;99.90;;;;;;5091115;27;20668;-73
2023/01/29 08:15:25;;;;;;;14.60;9.03;;;2.70;99.90;;;;;;5091839;28;20240;-71
2023/01/29 08:18:14;;;;;;;16.07;9.37;;;2.80;99.90;;;;;;5090321;28;20225;-70
2023/01/29 08:21:03;;;;;;;15.70;9.63;;;2.70;99.90;;;;;;5091063;28;20218;-70
2023/01/29 08:23:54;;;;;;;15.20;9.40;;;2.80;99.90;;;;;;5089024;28;20718;-70
2023/01/29 08:26:42;;;;;;;16.17;9.60;;;2.80;99.90;;;;;;5089604;27;20270;-70
2023/01/29 08:29:31;;;;;;;15.93;9.10;;;2.80;99.90;;;;;;5094481;27;20222;-71
2023/01/29 08:32:20;;;;;;;13.03;8.90;;;2.60;99.90;;;;;;5091901;27;20542;-68
2023/01/29 08:35:09;;;;;;;13.13;8.53;;;2.60;99.90;;;;;;5127185;27;20247;-69
2023/01/29 08:38:00;;;;;;;14.30;8.67;;;2.70;99.90;;;;;;5093167;27;20222;-69
2023/01/29 08:40:50;;;;;;;16.47;8.43;;;2.70;99.90;;;;;;5091910;28;20236;-70
2023/01/29 08:43:39;;;;;;;14.77;9.30;;;2.70;99.90;;;;;;5097598;27;20692;-69
2023/01/29 08:46:28;;;;;;;13.77;8.43;;;2.70;99.90;;;;;;5103242;27;20844;-73
2023/01/29 08:49:17;;;;;;;12.77;8.33;;;2.90;99.90;;;;;;5101300;27;20361;-74
2023/01/29 08:52:06;;;;;;;12.87;8.17;;;2.90;99.90;;;;;;5095753;27;21066;-70
2023/01/29 08:54:55;;;;;;;15.37;8.50;;;2.80;99.90;;;;;;5084269;28;20219;-71
2023/01/29 08:57:45;;;;;;;14.20;8.13;;;2.70;99.90;;;;;;5104440;27;21030;-70
2023/01/29 09:00:34;;;;;;;12.77;8.43;;;2.90;99.90;;;;;;5099359;27;20713;-71
2023/01/29 09:03:23;;;;;;;13.90;8.37;;;2.80;99.90;;;;;;5095864;28;20360;-70
2023/01/29 09:06:17;;;;;;;13.33;8.57;;;2.90;99.90;;;;;;5102240;27;20256;-70
2023/01/29 09:09:07;;;;;;;12.83;7.53;;;3.10;99.90;;;;;;5121581;27;20221;-69
2023/01/29 09:11:55;;;;;;;13.90;8.33;;;3.10;99.90;;;;;;5091239;28;20219;-71
2023/01/29 09:14:46;;;;;;;16.20;8.77;;;3.20;99.90;;;;;;5105996;27;20225;-70
2023/01/29 09:17:34;;;;;;;12.93;8.17;;;3.30;99.90;;;;;;5091895;28;20216;-72
2023/01/29 09:20:23;;;;;;;12.47;8.30;;;3.20;99.90;;;;;;5099256;27;20233;-68
2023/01/29 09:23:12;;;;;;;13.37;8.63;;;3.30;99.90;;;;;;5096207;27;20269;-69
2023/01/29 09:26:01;;;;;;;15.47;9.07;;;3.30;99.90;;;;;;5097809;27;20586;-70
2023/01/29 09:28:50;;;;;;;17.53;9.23;;;3.40;99.90;;;;;;5103375;27;20234;-72
2023/01/29 09:31:40;;;;;;;14.90;8.73;;;3.40;99.90;;;;;;5094710;27;20655;-78
2023/01/29 09:34:30;;;;;;;13.07;9.13;;;3.40;99.90;;;;;;5094106;28;20231;-72
2023/01/29 09:37:21;;;;;;;14.47;8.83;;;3.50;99.90;;;;;;5089712;27;20218;-68
2023/01/29 09:40:25;;;;;;;15.33;9.00;;;3.20;99.90;;;;;;5090474;28;20212;-74
2023/01/29 09:43:18;;;;;;;17.20;9.63;;;3.30;99.90;;;;;;5095147;28;20237;-65
2023/01/29 09:46:15;;;;;;;13.53;8.60;;;3.20;99.90;;;;;;5094926;27;20253;-67
2023/01/29 09:49:11;;;;;;;21.30;9.73;;;3.30;99.90;;;;;;5102848;27;20963;-68
2023/01/29 09:52:05;;;;;;;16.83;9.80;;;3.40;99.90;;;;;;5103511;27;20700;-69
2023/01/29 09:55:05;;;;;;;15.87;9.77;;;3.60;99.90;;;;;;5088925;27;20215;-69
2023/01/29 09:58:00;;;;;;;23.27;10.37;;;3.60;99.90;;;;;;5095936;28;20229;-70
2023/01/29 10:00:57;;;;;;;15.70;9.47;;;3.70;99.90;;;;;;5094403;28;20999;-68
2023/01/29 10:04:07;;;;;;;15.77;9.33;;;3.70;99.90;;;;;;5090792;28;20223;-68
2023/01/29 10:07:06;;;;;;;17.03;9.57;;;3.50;99.90;;;;;;5093971;27;20230;-68
2023/01/29 10:10:20;;;;;;;17.47;9.53;;;3.50;99.90;;;;;;5082725;28;20219;-68
2023/01/29 10:13:20;;;;;;;16.47;10.87;;;3.50;99.90;;;;;;5094854;27;20608;-68
2023/01/29 10:16:20;;;;;;;15.67;9.30;;;3.50;99.90;;;;;;5084192;28;20701;-67
2023/01/29 10:19:35;;;;;;;17.10;10.27;;;3.60;99.90;;;;;;5097837;27;20339;-70
2023/01/29 10:22:55;;;;;;;19.77;10.53;;;3.70;99.90;;;;;;5117514;27;20259;-70
2023/01/29 10:25:46;;;;;;;18.07;10.63;;;3.70;99.90;;;;;;5088343;27;20832;-67
2023/01/29 10:28:44;;;;;;;14.57;10.13;;;3.80;99.90;;;;;;5087158;27;20234;-68
2023/01/29 10:31:37;;;;;;;19.30;9.83;;;3.60;99.90;;;;;;5120463;27;20259;-69
2023/01/29 10:34:33;;;;;;;20.67;10.77;;;3.20;99.90;;;;;;5092457;27;20781;-68
2023/01/29 10:37:24;;;;;;;20.10;11.30;;;3.10;99.90;;;;;;5088794;27;20843;-69
2023/01/29 10:40:20;;;;;;;18.27;10.90;;;3.20;99.90;;;;;;5090498;28;20223;-70
2023/01/29 10:43:15;;;;;;;17.63;10.53;;;3.30;99.90;;;;;;5099734;28;20295;-67
2023/01/29 10:46:16;;;;;;;18.43;10.50;;;3.40;99.90;;;;;;5091168;28;20669;-68
2023/01/29 10:49:22;;;;;;;19.77;11.37;;;3.40;99.90;;;;;;5093565;28;20367;-68
2023/01/29 10:52:26;;;;;;;18.03;10.10;;;3.60;99.90;;;;;;5097996;27;20231;-68
2023/01/29 10:55:34;;;;;;;19.27;11.20;;;3.50;99.90;;;;;;5085277;28;20218;-68
2023/01/29 10:58:33;;;;;;;16.87;10.63;;;3.40;99.90;;;;;;5091846;28;20232;-68
2023/01/29 11:01:22;;;;;;;17.77;11.10;;;3.40;99.90;;;;;;5095035;27;20218;-68
2023/01/29 11:04:13;;;;;;;20.03;11.20;;;3.40;99.90;;;;;;5095698;28;20797;-69
2023/01/29 11:07:05;;;;;;;26.03;13.07;;;3.40;99.90;;;;;;5092818;27;20310;-66
2023/01/29 11:10:02;;;;;;;26.63;14.60;;;3.20;99.90;;;;;;5098835;27;20372;-69
2023/01/29 11:12:52;;;;;;;30.70;14.70;;;3.30;99.90;;;;;;5091880;27;20712;-68
2023/01/29 11:15:41;;;;;;;35.37;16.87;;;3.50;99.90;;;;;;5089002;28;20715;-67
2023/01/29 11:18:53;;;;;;;24.67;14.27;;;3.40;99.90;;;;;;5093901;27;20222;-69
2023/01/29 11:21:55;;;;;;;18.30;11.77;;;3.40;99.90;;;;;;5094601;27;20219;-68
2023/01/29 11:24:44;;;;;;;21.83;11.83;;;3.40;99.90;;;;;;5086488;28;20855;-67
2023/01/29 11:27:39;;;;;;;24.70;12.90;;;3.40;99.90;;;;;;5088934;27;20615;-69
2023/01/29 11:30:33;;;;;;;27.53;14.90;;;3.30;99.90;;;;;;5094184;27;20281;-68
2023/01/29 11:33:23;;;;;;;24.13;13.53;;;3.30;99.90;;;;;;5094078;27;20253;-67
2023/01/29 11:36:31;;;;;;;23.03;14.20;;;3.20;99.90;;;;;;5102219;27;20337;-67
2023/01/29 11:39:21;;;;;;;18.53;11.57;;;3.10;99.90;;;;;;5098851;27;20668;-68
2023/01/29 11:42:20;;;;;;;18.50;11.67;;;3.30;99.90;;;;;;5100920;27;20223;-67
2023/01/29 11:45:26;;;;;;;17.17;11.10;;;3.30;99.90;;;;;;5093847;27;20222;-66
2023/01/29 11:48:17;;;;;;;17.80;11.03;;;3.40;99.90;;;;;;5095328;28;20570;-66
2023/01/29 11:51:06;;;;;;;18.33;11.73;;;3.50;99.90;;;;;;5093284;28;21010;-68
2023/01/29 11:53:58;;;;;;;18.03;11.17;;;3.40;99.90;;;;;;5088210;28;20593;-68
2023/01/29 11:56:50;;;;;;;18.80;11.93;;;3.40;99.90;;;;;;5092696;27;20519;-67
2023/01/29 11:59:47;;;;;;;19.30;12.03;;;3.50;99.90;;;;;;5087976;28;20238;-67
2023/01/29 12:02:42;;;;;;;19.33;12.23;;;3.50;99.90;;;;;;5088762;28;20365;-67
2023/01/29 12:05:31;;;;;;;19.00;11.97;;;3.30;99.90;;;;;;5097652;27;20700;-67
2023/01/29 12:08:22;;;;;;;18.77;12.00;;;3.30;99.90;;;;;;5096196;27;20597;-67
2023/01/29 12:11:24;;;;;;;16.33;11.37;;;3.30;99.90;;;;;;5102257;27;20238;-68
2023/01/29 12:14:29;;;;;;;16.10;11.27;;;3.20;99.90;;;;;;5091475;27;20585;-69
2023/01/29 12:17:25;;;;;;;19.93;11.83;;;3.20;99.90;;;;;;5101374;27;20222;-66
2023/01/29 12:20:20;;;;;;;21.30;12.97;;;3.20;99.90;;;;;;5100312;27;20332;-66
2023/01/29 12:23:23;;;;;;;18.53;12.10;;;3.00;99.90;;;;;;5089637;28;20232;-68
2023/01/29 12:26:16;;;;;;;20.10;12.23;;;3.00;99.90;;;;;;5095943;28;20717;-68
2023/01/29 12:29:20;;;;;;;18.80;12.10;;;3.00;99.90;;;;;;5090144;28;20669;-68
2023/01/29 12:32:18;;;;;;;19.17;12.33;;;3.00;99.90;;;;;;5110826;27;20231;-67
2023/01/29 12:35:15;;;;;;;19.27;12.07;;;2.90;99.90;;;;;;5098507;27;20222;-65
2023/01/29 12:38:14;;;;;;;18.47;12.53;;;3.00;99.90;;;;;;5123543;27;20225;-67
2023/01/29 12:41:07;;;;;;;19.37;11.60;;;3.00;99.90;;;;;;5100997;28;20262;-66
2023/01/29 12:44:01;;;;;;;21.47;12.23;;;2.70;99.90;;;;;;5092363;28;20218;-66
2023/01/29 12:46:54;;;;;;;20.53;12.30;;;3.10;99.90;;;;;;5091419;27;20769;-67
2023/01/29 12:49:48;;;;;;;19.27;12.57;;;3.10;99.90;;;;;;5096338;28;20227;-68
2023/01/29 12:52:40;;;;;;;18.63;12.53;;;3.00;99.90;;;;;;5098462;27;20225;-67
2023/01/29 12:55:37;;;;;;;18.07;11.77;;;2.90;99.90;;;;;;5096415;27;20229;-67
2023/01/29 12:58:32;;;;;;;19.93;12.67;;;2.90;99.90;;;;;;5120579;27;20259;-69
2023/01/29 13:01:30;;;;;;;25.00;13.97;;;2.90;99.90;;;;;;5092689;28;20223;-69
2023/01/29 13:04:26;;;;;;;20.27;13.30;;;3.10;99.90;;;;;;5084822;28;20288;-68
2023/01/29 13:07:19;;;;;;;20.37;12.93;;;3.10;99.90;;;;;;5100440;27;20226;-67
2023/01/29 13:10:13;;;;;;;18.93;13.67;;;3.20;99.90;;;;;;5096020;27;20779;-69
2023/01/29 13:13:11;;;;;;;20.13;13.93;;;3.30;99.90;;;;;;5099394;28;20803;-69
2023/01/29 13:16:01;;;;;;;20.47;13.47;;;3.20;99.90;;;;;;5089836;28;20220;-68
2023/01/29 13:18:54;;;;;;;22.07;13.67;;;3.10;99.90;;;;;;5088360;28;20218;-68
2023/01/29 13:21:45;;;;;;;22.13;15.40;;;3.00;99.90;;;;;;5090576;28;20239;-67
2023/01/29 13:24:38;;;;;;;23.07;15.03;;;3.00;99.90;;;;;;5099313;27;20227;-66
2023/01/29 13:27:30;;;;;;;24.63;14.67;;;3.10;99.90;;;;;;5093504;27;20253;-68
2023/01/29 13:30:30;;;;;;;20.40;14.33;;;3.10;99.90;;;;;;5093998;27;20562;-68
2023/01/29 13:33:23;;;;;;;22.97;14.63;;;2.90;99.90;;;;;;5094395;28;20258;-68
2023/01/29 13:36:19;;;;;;;25.97;15.47;;;2.70;99.90;;;;;;5096333;27;20227;-67
2023/01/29 13:39:17;;;;;;;22.80;14.27;;;2.90;99.90;;;;;;5093672;28;20827;-66
2023/01/29 13:42:16;;;;;;;23.30;14.70;;;3.00;99.90;;;;;;5119885;27;20961;-67
2023/01/29 13:45:08;;;;;;;24.77;15.47;;;2.80;99.90;;;;;;5098046;27;20256;-68
2023/01/29 13:48:10;;;;;;;24.17;15.43;;;2.80;99.90;;;;;;5093326;27;20226;-66
2023/01/29 13:51:02;;;;;;;24.10;14.90;;;2.90;99.90;;;;;;5098223;28;20250;-67
2023/01/29 13:53:56;;;;;;;23.37;15.73;;;3.00;99.90;;;;;;5097960;27;20237;-67
2023/01/29 13:56:59;;;;;;;24.33;14.40;;;3.00;99.90;;;;;;5088003;28;20310;-68
2023/01/29 13:59:55;;;;;;;22.83;14.83;;;2.90;99.90;;;;;;5090850;27;20322;-68
2023/01/29 14:02:44;;;;;;;22.17;14.60;;;2.80;99.90;;;;;;5097248;28;20747;-68
2023/01/29 14:05:41;;;;;;;21.50;14.43;;;2.80;99.90;;;;;;5096109;27;20368;-67
2023/01/29 14:08:39;;;;;;;24.10;15.80;;;2.90;99.90;;;;;;5095680;27;20223;-69
2023/01/29 14:11:35;;;;;;;25.37;16.17;;;3.00;99.90;;;;;;5090472;27;20223;-67
2023/01/29 14:15:01;;;;;;;25.80;15.70;;;3.00;99.90;;;;;;5111302;27;20219;-67
2023/01/29 14:18:23;;;;;;;27.80;17.20;;;2.80;99.90;;;;;;5098278;27;20230;-68
2023/01/29 14:21:24;;;;;;;50.37;32.93;;;2.70;99.90;;;;;;5096278;27;20772;-68
2023/01/29 14:24:18;;;;;;;30.50;18.30;;;2.90;99.90;;;;;;5097039;27;20751;-68
2023/01/29 14:27:19;;;;;;;29.47;18.20;;;2.70;99.90;;;;;;5093819;28;20404;-68
2023/01/29 14:30:16;;;;;;;29.93;18.97;;;2.80;99.90;;;;;;5117463;27;20720;-68
2023/01/29 14:33:17;;;;;;;31.33;18.83;;;2.80;99.90;;;;;;5094099;27;20286;-67
2023/01/29 14:36:11;;;;;;;31.57;18.30;;;2.90;99.90;;;;;;5099993;27;20223;-68
2023/01/29 14:39:01;;;;;;;30.00;18.87;;;2.70;99.90;;;;;;5094471;27;20258;-68
2023/01/29 14:41:52;;;;;;;29.87;17.87;;;2.90;99.90;;;;;;5093734;27;20272;-68
2023/01/29 14:44:56;;;;;;;28.00;17.37;;;2.90;99.90;;;;;;5091856;28;20720;-68
2023/01/29 14:48:19;;;;;;;28.07;16.57;;;2.90;99.90;;;;;;5119029;27;20226;-68
2023/01/29 14:51:11;;;;;;;27.57;17.63;;;2.80;99.90;;;;;;5063682;28;20235;-70
2023/01/29 14:54:04;;;;;;;30.13;18.90;;;2.70;99.90;;;;;;5097266;28;20256;-68
2023/01/29 14:56:59;;;;;;;26.60;17.07;;;2.60;99.90;;;;;;5096074;27;20248;-68
2023/01/29 14:59:55;;;;;;;27.57;17.60;;;2.70;99.90;;;;;;5094061;28;20232;-68
2023/01/29 15:02:45;;;;;;;30.83;18.20;;;2.60;99.90;;;;;;5094363;28;20312;-68
2023/01/29 15:05:37;;;;;;;25.17;16.43;;;2.70;99.90;;;;;;5093031;28;20310;-67
2023/01/29 15:08:32;;;;;;;30.77;18.20;;;2.70;99.90;;;;;;5090198;27;20233;-68
2023/01/29 15:11:37;;;;;;;30.67;18.07;;;2.80;99.90;;;;;;5103769;27;20598;-68
2023/01/29 15:14:32;;;;;;;25.93;17.17;;;2.80;99.90;;;;;;5092187;27;20231;-68
2023/01/29 15:17:28;;;;;;;28.83;17.67;;;2.90;99.90;;;;;;5099699;28;20239;-68
2023/01/29 15:20:28;;;;;;;26.53;17.50;;;2.90;99.90;;;;;;5092363;27;20229;-67
2023/01/29 15:23:28;;;;;;;24.03;15.53;;;2.70;99.90;;;;;;5100273;27;20241;-68
2023/01/29 15:26:20;;;;;;;27.67;17.70;;;2.60;99.90;;;;;;5100936;27;20222;-66